Time;durP1;ratioP1;P1;durP2;ratioP2;P2;SDS_P1;SDS_P2;PMS_P1;PMS_P2;Temp;Humidity;BMP_temperature;BMP_pressure;BME280_temperature;BME280_humidity;BME280_pressure;Samples;Min_cycle;Max_cycle;Signal;HPM_P1;HPM_P2
2021/10/23 00:02:08;;;;;;;;;2.25;2.25;;;;;23.27;43.54;102473.03;5057485;28;45450;-68
2021/10/23 00:04:33;;;;;;;;;4.25;2.25;;;;;23.40;43.76;102499.22;5056021;28;45506;-68
2021/10/23 00:06:58;;;;;;;;;5.00;3.00;;;;;23.40;43.37;102501.88;5057581;28;45416;-68
2021/10/23 00:09:24;;;;;;;;;3.00;2.00;;;;;23.29;44.03;102485.19;5056958;28;45562;-68
2021/10/23 00:11:49;;;;;;;;;3.75;2.75;;;;;23.37;44.04;102497.72;5056850;28;45307;-67
2021/10/23 00:14:16;;;;;;;;;2.50;2.25;;;;;23.39;43.53;102500.22;5054608;28;45487;-68
2021/10/23 00:16:41;;;;;;;;;3.00;3.00;;;;;23.39;43.42;102505.53;5048544;28;45387;-67
2021/10/23 00:19:06;;;;;;;;;2.25;2.25;;;;;23.32;43.45;102480.53;5057663;28;45578;-67
2021/10/23 00:21:32;;;;;;;;;4.50;2.00;;;;;23.39;43.62;102498.38;5058124;28;47198;-68
2021/10/23 00:23:57;;;;;;;;;4.25;2.75;;;;;23.41;43.85;102503.56;5057492;28;45329;-67
2021/10/23 00:26:23;;;;;;;;;3.75;3.75;;;;;23.42;43.49;102501.75;5057419;28;45666;-68
2021/10/23 00:28:48;;;;;;;;;3.50;3.00;;;;;23.40;43.95;102502.72;5057767;28;45501;-68
2021/10/23 00:31:14;;;;;;;;;3.50;2.25;;;;;23.42;44.09;102499.09;5057101;28;47190;-68
2021/10/23 00:33:39;;;;;;;;;5.75;4.00;;;;;23.42;43.13;102510.53;5058033;28;45674;-67
2021/10/23 00:36:05;;;;;;;;;5.00;3.50;;;;;23.37;42.58;102495.06;5057343;28;45574;-67
2021/10/23 00:38:30;;;;;;;;;2.75;2.75;;;;;23.42;42.94;102499.91;5057350;28;45554;-67
2021/10/23 00:40:56;;;;;;;;;3.25;3.25;;;;;23.13;43.36;102445.19;5057265;28;45571;-67
2021/10/23 00:43:21;;;;;;;;;4.50;3.00;;;;;23.46;43.21;102500.47;5057571;28;45364;-67
2021/10/23 00:45:47;;;;;;;;;4.75;3.75;;;;;23.47;43.16;102502.16;5057398;28;45440;-67
2021/10/23 00:48:13;;;;;;;;;3.75;3.75;;;;;23.48;43.33;102498.47;5057431;28;45413;-67
2021/10/23 00:50:39;;;;;;;;;3.25;3.00;;;;;23.49;42.63;102506.34;5057306;28;47090;-67
2021/10/23 00:53:04;;;;;;;;;3.50;3.25;;;;;23.49;42.58;102502.81;5057088;28;45291;-68
2021/10/23 00:55:29;;;;;;;;;2.00;2.00;;;;;23.49;42.78;102497.50;5057675;28;45394;-67
2021/10/23 00:57:55;;;;;;;;;3.00;3.00;;;;;23.48;42.96;102496.66;5057617;28;45596;-67
2021/10/23 01:00:21;;;;;;;;;4.00;4.00;;;;;23.49;42.71;102497.50;5057107;28;46010;-67
2021/10/23 01:02:46;;;;;;;;;3.25;3.25;;;;;23.44;42.71;102492.66;5056909;28;45375;-67
2021/10/23 01:05:12;;;;;;;;;3.25;3.25;;;;;23.49;42.21;102502.81;5056435;28;45397;-67
2021/10/23 01:07:37;;;;;;;;;3.00;3.00;;;;;23.48;42.19;102501.13;5057230;28;45300;-67
2021/10/23 01:10:10;;;;;;;;;4.00;3.00;;;;;23.47;42.48;102494.97;5057232;28;45442;-67
2021/10/23 01:12:40;;;;;;;;;4.00;3.00;;;;;23.47;42.52;102494.97;5057359;28;45170;-67
2021/10/23 01:15:17;;;;;;;;;5.25;4.50;;;;;23.46;42.18;102490.69;5057091;28;45347;-67
2021/10/23 01:17:43;;;;;;;;;2.75;2.00;;;;;23.47;42.70;102492.31;5056820;28;45463;-67
2021/10/23 01:20:09;;;;;;;;;3.00;3.00;;;;;23.47;42.15;102497.66;5056758;28;45976;-67
2021/10/23 01:22:34;;;;;;;;;4.75;4.75;;;;;23.45;42.38;102493.47;5056881;28;45447;-67
2021/10/23 01:25:00;;;;;;;;;3.00;3.00;;;;;23.46;42.39;102495.16;5057179;28;45226;-67
2021/10/23 01:27:25;;;;;;;;;3.75;3.00;;;;;23.44;42.36;102490.00;5057214;28;45401;-67
2021/10/23 01:29:50;;;;;;;;;2.50;2.50;;;;;23.43;42.35;102488.31;5056660;28;46527;-67
2021/10/23 01:32:16;;;;;;;;;3.00;3.00;;;;;23.43;42.48;102488.31;5056611;28;45588;-67
2021/10/23 01:34:41;;;;;;;;;2.67;2.67;;;;;23.42;42.04;102478.66;5057005;28;45665;-67
2021/10/23 01:37:06;;;;;;;;;4.50;4.50;;;;;23.35;42.26;102466.97;5056813;28;45287;-67
2021/10/23 01:39:34;;;;;;;;;3.50;3.50;;;;;23.40;42.15;102478.81;5057229;28;45558;-67
2021/10/23 01:42:00;;;;;;;;;4.00;2.00;;;;;23.42;42.04;102475.19;5056070;28;45426;-67
2021/10/23 01:44:28;;;;;;;;;4.25;2.25;;;;;23.40;42.51;102472.66;5056420;28;45340;-67
2021/10/23 01:46:54;;;;;;;;;2.00;2.00;;;;;23.40;42.47;102480.63;5056359;28;45489;-67
2021/10/23 01:49:19;;;;;;;;;5.00;3.75;;;;;23.39;42.16;102485.09;5055845;28;45379;-67
2021/10/23 01:51:44;;;;;;;;;3.50;3.00;;;;;23.38;42.50;102483.47;5057104;28;45367;-67
2021/10/23 01:54:10;;;;;;;;;3.00;3.00;;;;;23.38;41.93;102479.97;5055269;28;45399;-67
2021/10/23 01:56:39;;;;;;;;;1.75;1.75;;;;;23.38;42.47;102490.59;5056094;28;45575;-67
2021/10/23 01:59:04;;;;;;;;;3.75;3.50;;;;;23.32;42.01;102472.56;5056279;28;46980;-67
2021/10/23 02:01:30;;;;;;;;;3.00;3.00;;;;;23.36;42.33;102484.59;5056293;28;45479;-67
2021/10/23 02:03:55;;;;;;;;;3.00;3.00;;;;;23.36;42.11;102484.59;5056687;28;45362;-67
2021/10/23 02:06:21;;;;;;;;;6.00;3.25;;;;;23.35;41.79;102480.25;5056595;28;45537;-68
2021/10/23 02:08:47;;;;;;;;;2.25;2.25;;;;;23.35;42.03;102477.59;5056158;28;47146;-67
2021/10/23 02:11:12;;;;;;;;;3.00;3.00;;;;;23.35;42.44;102480.25;5054293;28;45431;-68
2021/10/23 02:13:38;;;;;;;;;3.00;3.00;;;;;23.35;41.99;102477.59;5056234;28;45273;-68
2021/10/23 02:16:03;;;;;;;;;3.50;3.50;;;;;23.35;41.72;102469.63;5056090;28;45350;-68
2021/10/23 02:18:29;;;;;;;;;4.00;3.25;;;;;23.32;41.81;102453.97;5056523;28;46096;-68
2021/10/23 02:20:55;;;;;;;;;4.50;3.50;;;;;23.34;42.34;102457.34;5055973;28;45216;-68
2021/10/23 02:23:22;;;;;;;;;4.00;3.00;;;;;23.34;42.09;102460.00;5056090;28;45346;-68
2021/10/23 02:25:47;;;;;;;;;2.25;2.25;;;;;23.26;41.91;102452.78;5055639;28;45322;-67
2021/10/23 02:28:12;;;;;;;;;2.75;2.75;;;;;23.28;41.59;102462.28;5055806;28;46173;-68
2021/10/23 02:30:38;;;;;;;;;4.00;4.00;;;;;23.33;41.78;102461.81;5056612;28;45400;-68
2021/10/23 02:33:03;;;;;;;;;3.50;3.50;;;;;23.29;41.93;102449.81;5055839;28;45431;-67
2021/10/23 02:35:29;;;;;;;;;3.25;3.25;;;;;23.33;41.94;102461.81;5054745;28;45427;-68
2021/10/23 02:37:54;;;;;;;;;5.75;3.25;;;;;23.34;41.56;102460.00;5055631;28;47156;-68
2021/10/23 02:40:19;;;;;;;;;4.00;4.00;;;;;23.27;41.77;102452.63;5055460;28;45588;-67
2021/10/23 02:42:45;;;;;;;;;2.00;2.00;;;;;23.33;41.74;102467.13;5056650;28;45500;-67
2021/10/23 02:45:10;;;;;;;;;3.75;2.25;;;;;23.32;41.54;102457.47;5055445;28;45290;-66
2021/10/23 02:47:36;;;;;;;;;5.00;3.00;;;;;23.29;41.74;102453.31;5055419;28;45862;-67
2021/10/23 02:50:04;;;;;;;;;3.25;3.25;;;;;23.23;41.80;102434.50;5055574;28;45375;-67
2021/10/23 02:52:29;;;;;;;;;2.25;2.25;;;;;23.33;42.06;102455.66;5055644;28;45442;-67
2021/10/23 02:54:55;;;;;;;;;4.75;4.00;;;;;23.33;42.06;102453.00;5055354;28;45233;-67
2021/10/23 02:57:20;;;;;;;;;2.00;2.00;;;;;23.32;41.45;102460.13;5056001;28;45213;-67
2021/10/23 02:59:46;;;;;;;;;4.50;2.00;;;;;23.31;41.86;102450.53;5055247;28;45438;-67
2021/10/23 03:02:11;;;;;;;;;3.25;2.25;;;;;23.31;41.51;102457.66;5055507;28;45466;-67
2021/10/23 03:04:37;;;;;;;;;3.50;3.50;;;;;23.32;41.93;102459.31;5055605;28;45619;-67
2021/10/23 03:07:02;;;;;;;;;3.00;3.00;;;;;23.23;41.83;102447.78;5055312;28;46269;-68
2021/10/23 03:09:28;;;;;;;;;2.50;2.50;;;;;23.31;41.57;102457.66;5055690;28;45462;-67
2021/10/23 03:11:53;;;;;;;;;2.25;2.25;;;;;23.30;41.53;102456.81;5055159;28;45331;-67
2021/10/23 03:14:18;;;;;;;;;2.75;2.75;;;;;23.30;41.36;102446.19;5055260;28;45524;-67
2021/10/23 03:16:44;;;;;;;;;2.00;2.00;;;;;23.29;41.38;102439.19;5055370;28;45286;-67
2021/10/23 03:19:09;;;;;;;;;3.00;3.00;;;;;23.28;41.28;102445.50;5054823;28;45380;-67
2021/10/23 03:21:34;;;;;;;;;4.00;3.50;;;;;23.27;41.78;102442.00;5055949;28;45409;-67
2021/10/23 03:24:00;;;;;;;;;3.00;3.00;;;;;23.28;41.73;102443.69;5054689;28;45450;-67
2021/10/23 03:26:25;;;;;;;;;3.00;3.00;;;;;23.17;41.30;102431.44;5054239;28;46051;-67
2021/10/23 03:28:51;;;;;;;;;3.00;3.00;;;;;23.27;41.58;102449.97;5055107;28;45393;-67
2021/10/23 03:31:16;;;;;;;;;4.00;4.00;;;;;23.27;41.43;102449.97;5055307;28;45276;-67
2021/10/23 03:33:41;;;;;;;;;3.75;2.00;;;;;23.26;41.60;102448.28;5055618;28;45298;-67
2021/10/23 03:36:07;;;;;;;;;3.00;3.00;;;;;23.26;41.86;102450.13;5054955;28;45494;-67
2021/10/23 03:38:33;;;;;;;;;3.25;3.00;;;;;23.25;41.53;102449.28;5054513;28;45271;-67
2021/10/23 03:40:58;;;;;;;;;3.75;3.75;;;;;23.21;41.72;102450.59;5054945;28;45461;-67
2021/10/23 03:43:24;;;;;;;;;4.00;3.00;;;;;23.23;41.21;102445.97;5054946;28;45274;-68
2021/10/23 03:45:49;;;;;;;;;3.00;2.50;;;;;23.24;41.69;102447.59;5054848;28;47110;-68
2021/10/23 03:48:14;;;;;;;;;3.00;3.00;;;;;23.25;41.71;102453.75;5054603;28;45376;-67
2021/10/23 03:50:40;;;;;;;;;5.00;4.00;;;;;23.23;41.79;102456.56;5054852;28;45177;-67
2021/10/23 03:53:05;;;;;;;;;2.75;2.50;;;;;23.23;41.23;102459.22;5054624;28;45271;-67
2021/10/23 03:55:31;;;;;;;;;3.25;3.25;;;;;23.22;41.33;102465.50;5054696;28;45488;-68
2021/10/23 03:57:56;;;;;;;;;4.75;4.00;;;;;23.24;41.11;102460.03;5055010;28;45357;-68
2021/10/23 04:00:21;;;;;;;;;3.00;3.00;;;;;23.24;41.22;102452.06;5055165;28;45375;-67
2021/10/23 04:02:47;;;;;;;;;4.25;2.75;;;;;23.15;41.27;102448.50;5054631;28;45588;-67
2021/10/23 04:05:12;;;;;;;;;4.00;4.00;;;;;23.23;41.70;102467.19;5054342;28;46290;-68
2021/10/23 04:07:38;;;;;;;;;3.50;3.50;;;;;23.25;41.52;102475.00;5054357;28;45517;-68
2021/10/23 04:10:04;;;;;;;;;3.00;3.00;;;;;23.24;41.31;102471.50;5054993;28;45374;-68
2021/10/23 04:12:31;;;;;;;;;3.75;3.75;;;;;23.15;41.23;102446.69;5055423;28;45470;-68
2021/10/23 04:14:57;;;;;;;;;7.25;3.00;;;;;23.25;41.42;102464.38;5054249;28;46312;-69
2021/10/23 04:17:23;;;;;;;;;3.00;3.00;;;;;23.24;41.10;102466.19;5054272;28;45353;-68
2021/10/23 04:19:48;;;;;;;;;4.00;2.25;;;;;23.24;41.09;102466.19;5054657;28;45272;-68
2021/10/23 04:22:13;;;;;;;;;4.75;3.75;;;;;23.22;41.09;102462.88;5054292;28;45555;-68
2021/10/23 04:24:39;;;;;;;;;3.00;3.00;;;;;23.15;40.84;102453.81;5054760;28;45757;-68
2021/10/23 04:27:04;;;;;;;;;4.50;3.25;;;;;23.12;41.52;102440.84;5054315;28;45507;-68
2021/10/23 04:29:29;;;;;;;;;5.25;3.00;;;;;23.19;41.49;102457.84;5054333;28;45419;-66
2021/10/23 04:31:55;;;;;;;;;2.75;2.75;;;;;23.20;41.48;102453.38;5054400;28;45461;-68
2021/10/23 04:34:20;;;;;;;;;7.50;4.00;;;;;23.24;41.48;102468.84;5054271;28;46228;-66
2021/10/23 04:36:45;;;;;;;;;3.00;3.00;;;;;23.25;41.49;102465.22;5053280;28;45774;-67
2021/10/23 04:39:11;;;;;;;;;3.00;2.00;;;;;23.17;41.51;102451.84;5055585;28;45519;-68
2021/10/23 04:41:37;;;;;;;;;3.50;2.50;;;;;23.24;41.46;102458.22;5057742;28;45427;-68
2021/10/23 04:44:03;;;;;;;;;4.50;4.50;;;;;23.24;41.42;102460.03;5057384;28;45469;-68
2021/10/23 04:46:28;;;;;;;;;3.00;3.00;;;;;23.13;41.14;102437.22;5057445;28;45418;-68
2021/10/23 04:48:53;;;;;;;;;4.50;3.00;;;;;23.23;40.93;102461.06;5057679;28;45708;-68
2021/10/23 04:51:19;;;;;;;;;3.75;3.75;;;;;23.22;41.15;102462.88;5056793;28;45434;-68
2021/10/23 04:53:44;;;;;;;;;4.00;3.00;;;;;23.23;41.27;102461.06;5057134;28;46198;-68
2021/10/23 04:56:10;;;;;;;;;4.25;3.00;;;;;23.22;41.00;102464.69;5057511;28;45407;-68
2021/10/23 04:58:37;;;;;;;;;3.25;2.00;;;;;23.22;41.50;102473.47;5057740;28;45308;-68
2021/10/23 05:01:03;;;;;;;;;3.75;3.00;;;;;23.22;41.38;102472.63;5057338;28;45224;-68
2021/10/23 05:03:29;;;;;;;;;4.50;4.50;;;;;23.21;41.26;102471.00;5057677;28;47048;-68
2021/10/23 05:05:55;;;;;;;;;4.00;2.75;;;;;23.20;41.04;102474.63;5056662;28;45380;-67
2021/10/23 05:08:20;;;;;;;;;2.75;2.75;;;;;23.20;41.29;102478.13;5057271;28;45227;-68
2021/10/23 05:10:46;;;;;;;;;2.75;2.25;;;;;23.14;40.92;102473.38;5057403;28;45560;-68
2021/10/23 05:13:13;;;;;;;;;3.00;3.00;;;;;23.12;41.22;102470.03;5055770;28;48463;-68
2021/10/23 05:15:38;;;;;;;;;6.00;4.25;;;;;23.14;41.05;102476.88;5057529;28;45391;-68
2021/10/23 05:18:03;;;;;;;;;5.25;4.50;;;;;23.18;41.05;102475.63;5057180;28;45556;-67
2021/10/23 05:20:29;;;;;;;;;3.00;3.00;;;;;23.19;41.33;102481.75;5056745;28;45501;-68
2021/10/23 05:22:54;;;;;;;;;3.50;2.75;;;;;23.17;41.00;102478.41;5056651;28;45990;-68
2021/10/23 05:25:19;;;;;;;;;3.25;3.25;;;;;23.17;40.98;102483.72;5056940;28;45419;-68
2021/10/23 05:27:45;;;;;;;;;4.25;2.75;;;;;23.11;40.97;102471.84;5057831;28;45461;-68
2021/10/23 05:30:11;;;;;;;;;3.00;3.00;;;;;23.16;40.89;102484.72;5056868;28;45612;-68
2021/10/23 05:32:36;;;;;;;;;4.75;2.75;;;;;23.17;40.90;102486.38;5056610;28;45479;-68
2021/10/23 05:35:02;;;;;;;;;2.00;2.00;;;;;23.18;40.77;102491.53;5056345;28;45478;-67
2021/10/23 05:37:27;;;;;;;;;4.00;3.00;;;;;23.07;41.13;102476.66;5072571;28;45445;-67
2021/10/23 05:39:53;;;;;;;;;5.00;5.00;;;;;23.11;40.81;102481.66;5057055;28;45520;-68
2021/10/23 05:42:18;;;;;;;;;5.00;2.75;;;;;23.18;40.74;102490.72;5056856;28;46033;-68
2021/10/23 05:44:43;;;;;;;;;3.00;2.25;;;;;23.17;40.61;102495.19;5056373;28;45470;-68
2021/10/23 05:47:09;;;;;;;;;3.00;3.00;;;;;23.15;41.14;102483.88;5056756;28;45204;-68
2021/10/23 05:49:35;;;;;;;;;3.00;3.00;;;;;23.17;40.58;102489.03;5055929;28;45459;-68
2021/10/23 05:52:01;;;;;;;;;4.75;4.00;;;;;23.17;40.60;102486.38;5056608;28;46151;-68
2021/10/23 05:54:27;;;;;;;;;2.75;2.75;;;;;23.17;40.59;102483.72;5056966;28;45445;-68
2021/10/23 05:56:52;;;;;;;;;3.50;3.50;;;;;23.18;41.18;102485.41;5056415;28;45664;-68
2021/10/23 05:59:18;;;;;;;;;4.00;3.00;;;;;23.18;40.99;102494.19;5056666;28;45737;-67
2021/10/23 06:01:45;;;;;;;;;3.00;3.00;;;;;23.18;41.07;102482.75;5056211;28;45500;-68
2021/10/23 06:04:11;;;;;;;;;2.25;2.25;;;;;23.18;41.00;102478.28;5056153;28;45402;-68
2021/10/23 06:06:40;;;;;;;;;4.50;4.00;;;;;23.18;40.82;102491.53;5056885;28;45402;-68
2021/10/23 06:09:06;;;;;;;;;3.75;3.75;;;;;22.81;40.60;102431.38;5056272;28;45818;-68
2021/10/23 06:11:32;;;;;;;;;3.00;3.00;;;;;23.18;40.73;102485.41;5055829;28;46161;-68
2021/10/23 06:13:58;;;;;;;;;2.00;2.00;;;;;23.09;41.17;102471.19;5056099;28;45537;-68
2021/10/23 06:16:25;;;;;;;;;3.75;2.00;;;;;23.18;40.43;102486.25;5056243;28;45521;-68
2021/10/23 06:18:50;;;;;;;;;5.25;3.25;;;;;23.18;40.55;102493.38;5056157;28;45434;-68
2021/10/23 06:21:16;;;;;;;;;2.50;2.50;;;;;23.13;40.98;102485.00;5056387;28;46221;-67
2021/10/23 06:23:41;;;;;;;;;3.00;3.00;;;;;23.17;40.52;102495.19;5055915;28;45571;-67
2021/10/23 06:26:06;;;;;;;;;4.00;3.00;;;;;23.14;40.75;102492.81;5055781;28;46022;-68
2021/10/23 06:28:36;;;;;;;;;3.00;2.00;;;;;23.16;41.05;102496.16;5056133;28;45375;-68
2021/10/23 06:31:02;;;;;;;;;5.00;3.25;;;;;23.16;41.02;102504.13;5055965;28;46394;-68
2021/10/23 06:33:28;;;;;;;;;4.00;4.00;;;;;23.12;40.58;102489.47;5053980;28;45670;-68
2021/10/23 06:35:53;;;;;;;;;2.25;2.25;;;;;23.17;40.47;102502.31;5055709;28;45453;-68
2021/10/23 06:38:18;;;;;;;;;4.00;4.00;;;;;23.15;40.55;102507.78;5055826;28;45465;-68
2021/10/23 06:40:44;;;;;;;;;2.50;2.50;;;;;23.16;40.99;102503.31;5055833;28;45350;-68
2021/10/23 06:43:10;;;;;;;;;2.25;2.25;;;;;23.14;40.43;102506.09;5054308;28;48018;-67
2021/10/23 06:45:36;;;;;;;;;5.00;4.00;;;;;23.15;41.09;102504.28;5056173;28;45476;-68
2021/10/23 06:48:01;;;;;;;;;4.75;4.00;;;;;23.14;41.08;102514.06;5055298;28;45379;-68
2021/10/23 06:50:27;;;;;;;;;3.50;3.50;;;;;23.13;41.02;102517.72;5055251;28;47154;-68
2021/10/23 06:52:52;;;;;;;;;4.25;3.50;;;;;23.14;41.06;102515.84;5055486;28;45451;-67
2021/10/23 06:55:17;;;;;;;;;5.25;3.00;;;;;23.13;41.06;102514.22;5055876;28;45388;-68
2021/10/23 06:57:46;;;;;;;;;3.00;3.00;;;;;23.13;40.43;102520.34;5056281;28;45628;-68
2021/10/23 07:00:12;;;;;;;;;3.50;3.25;;;;;23.12;41.02;102521.34;5055263;28;47021;-68
2021/10/23 07:02:42;;;;;;;;;4.25;2.00;;;;;23.12;40.55;102523.16;5053863;28;45609;-67
2021/10/23 07:05:10;;;;;;;;;3.00;3.00;;;;;23.07;40.92;102518.28;5055269;28;45442;-68
2021/10/23 07:07:36;;;;;;;;;5.00;2.25;;;;;23.12;40.48;102523.16;5055444;28;45497;-68
2021/10/23 07:10:02;;;;;;;;;3.00;3.00;;;;;22.98;40.66;102506.72;5055569;28;45989;-66
2021/10/23 07:12:27;;;;;;;;;2.75;2.75;;;;;23.12;40.46;102531.94;5053774;28;45311;-68
2021/10/23 07:14:53;;;;;;;;;2.50;2.50;;;;;23.12;41.00;102528.47;5055332;28;45445;-68
2021/10/23 07:17:18;;;;;;;;;6.00;3.00;;;;;23.13;40.67;102532.78;5054973;28;45550;-68
2021/10/23 07:19:43;;;;;;;;;2.00;2.00;;;;;23.12;40.89;102542.56;5055149;28;45509;-67
2021/10/23 07:22:09;;;;;;;;;2.75;2.75;;;;;23.13;40.61;102535.44;5055178;28;45387;-66
2021/10/23 07:24:34;;;;;;;;;3.25;3.25;;;;;23.13;40.28;102538.09;5055760;28;45314;-68
2021/10/23 07:26:59;;;;;;;;;3.50;2.75;;;;;23.13;40.87;102544.25;5055024;28;45375;-67
2021/10/23 07:29:25;;;;;;;;;0.00;0.00;;;;;23.12;40.35;102545.22;5055073;28;45346;-68
2021/10/23 07:31:50;;;;;;;;;3.00;3.00;;;;;23.12;40.21;102553.19;5053605;28;45390;-68
2021/10/23 07:34:15;;;;;;;;;2.25;2.25;;;;;23.10;40.62;102549.00;5039136;28;45801;-68
2021/10/23 07:36:41;;;;;;;;;3.00;3.00;;;;;23.15;40.22;102562.69;5055653;28;45412;-68
2021/10/23 07:39:06;;;;;;;;;3.25;2.00;;;;;23.14;40.56;102564.50;5054792;28;45344;-68
2021/10/23 07:41:32;;;;;;;;;3.00;3.00;;;;;23.14;40.68;102569.81;5054897;28;45265;-68
2021/10/23 07:43:57;;;;;;;;;3.25;3.25;;;;;23.15;40.38;102573.31;5054848;28;45371;-67
2021/10/23 07:46:22;;;;;;;;;2.00;2.00;;;;;23.14;40.86;102569.81;5054733;28;45214;-67
2021/10/23 07:48:48;;;;;;;;;3.00;2.00;;;;;23.14;40.68;102571.63;5055395;28;46067;-67
2021/10/23 07:51:14;;;;;;;;;2.50;2.50;;;;;23.15;40.61;102575.97;5055056;28;45982;-68
2021/10/23 07:53:40;;;;;;;;;4.50;3.00;;;;;23.14;40.32;102580.44;5054597;28;45296;-68
2021/10/23 07:56:05;;;;;;;;;4.00;4.00;;;;;23.13;40.83;102578.78;5054818;28;45405;-67
2021/10/23 07:58:31;;;;;;;;;4.75;3.50;;;;;23.05;40.32;102571.53;5054731;28;45943;-68
2021/10/23 08:00:57;;;;;;;;;2.00;2.00;;;;;23.13;40.34;102583.25;5054570;28;45335;-68
2021/10/23 08:03:23;;;;;;;;;3.00;3.00;;;;;23.08;40.38;102573.06;5055265;28;45292;-68
2021/10/23 08:05:49;;;;;;;;;4.00;2.75;;;;;23.14;40.67;102590.19;5054444;28;45818;-67
2021/10/23 08:08:14;;;;;;;;;2.25;2.25;;;;;23.12;40.63;102582.41;5053020;28;46158;-68
2021/10/23 08:10:40;;;;;;;;;2.25;2.25;;;;;23.03;40.67;102573.47;5054658;28;45430;-68
2021/10/23 08:13:05;;;;;;;;;3.00;3.00;;;;;23.09;40.35;102588.00;5055476;28;46579;-70
2021/10/23 08:15:32;;;;;;;;;3.00;3.00;;;;;23.12;40.55;102594.81;5058785;28;45462;-68
2021/10/23 08:17:58;;;;;;;;;5.75;3.00;;;;;23.12;39.96;102597.47;5057915;28;46257;-67
2021/10/23 08:20:25;;;;;;;;;6.25;6.25;;;;;23.10;39.35;102599.44;5055197;28;45473;-68
2021/10/23 08:22:50;;;;;;;;;7.50;7.50;;;;;23.06;38.67;102605.03;5050798;28;46163;-68
2021/10/23 08:25:16;;;;;;;;;4.50;4.50;;;;;23.00;38.57;102597.69;5055593;28;45369;-67
2021/10/23 08:27:42;;;;;;;;;5.75;5.75;;;;;22.93;38.44;102602.69;5051677;28;46626;-67
2021/10/23 08:30:11;;;;;;;;;6.00;5.75;;;;;22.82;37.81;102593.09;5054543;28;45498;-69
2021/10/23 08:32:38;;;;;;;;;3.75;3.75;;;;;22.66;37.70;102577.75;5052992;28;45509;-68
2021/10/23 08:35:04;;;;;;;;;7.75;6.00;;;;;22.66;37.19;102596.31;5053914;28;45552;-68
2021/10/23 08:37:30;;;;;;;;;9.00;7.00;;;;;22.68;37.62;102604.13;5053623;28;46748;-68
2021/10/23 08:39:55;;;;;;;;;6.50;6.50;;;;;22.67;37.77;102605.09;5055979;28;45498;-68
2021/10/23 08:42:21;;;;;;;;;5.50;5.50;;;;;22.60;37.73;102588.91;5053508;28;45526;-68
2021/10/23 08:44:46;;;;;;;;;9.25;5.75;;;;;22.72;37.61;102608.19;5051524;28;45449;-67
2021/10/23 08:47:15;;;;;;;;;6.00;5.00;;;;;22.75;38.32;102605.25;5050928;28;46174;-67
2021/10/23 08:49:41;;;;;;;;;4.25;3.75;;;;;22.79;38.24;102604.00;5052597;28;45493;-67
2021/10/23 08:52:07;;;;;;;;;5.00;5.00;;;;;22.83;38.60;102613.34;5055145;28;45494;-68
2021/10/23 08:54:33;;;;;;;;;4.00;4.00;;;;;22.88;38.26;102606.75;5056216;28;45590;-68
2021/10/23 08:56:59;;;;;;;;;5.25;4.25;;;;;22.92;38.06;102610.81;5054191;28;46431;-68
2021/10/23 08:59:26;;;;;;;;;5.75;3.75;;;;;22.98;38.38;102612.06;5052562;28;45540;-68
2021/10/23 09:02:02;;;;;;;;;5.75;4.75;;;;;23.00;38.09;102607.44;5053018;28;45325;-68
2021/10/23 09:04:29;;;;;;;;;7.00;4.00;;;;;23.04;38.81;102612.31;5054151;28;45969;-68
2021/10/23 09:07:07;;;;;;;;;4.25;4.25;;;;;23.01;38.51;102593.19;5059483;28;46427;-66
2021/10/23 09:09:43;;;;;;;;;5.00;5.00;;;;;23.12;38.21;102611.59;5054448;28;45292;-67
2021/10/23 09:12:17;;;;;;;;;4.00;4.00;;;;;23.15;38.73;102607.81;5055003;28;45527;-68
2021/10/23 09:14:42;;;;;;;;;3.00;3.00;;;;;23.18;38.09;102611.03;5053092;28;45485;-68
2021/10/23 09:17:10;;;;;;;;;3.75;3.75;;;;;23.18;38.71;102603.06;5058320;27;47092;-67
2021/10/23 09:19:46;;;;;;;;;5.00;4.75;;;;;23.23;38.84;102605.28;5056831;28;45433;-66
2021/10/23 09:22:28;;;;;;;;;6.75;3.00;;;;;23.25;38.53;102600.66;5053166;28;45660;-66
2021/10/23 09:25:15;;;;;;;;;4.00;2.00;;;;;23.28;38.46;102604.84;5048169;28;45321;-67
2021/10/23 09:27:59;;;;;;;;;6.50;5.50;;;;;23.32;38.65;102608.03;5054140;28;45322;-65
2021/10/23 09:30:31;;;;;;;;;5.50;3.25;;;;;23.34;38.49;102606.88;5054307;28;45460;-65
2021/10/23 09:33:00;;;;;;;;;2.00;2.00;;;;;23.36;38.69;102612.91;5054476;28;45519;-66
2021/10/23 09:35:26;;;;;;;;;7.25;4.75;;;;;23.38;39.13;102607.44;5053403;28;45505;-65
2021/10/23 09:37:57;;;;;;;;;3.00;3.00;;;;;23.39;39.04;102599.31;5057493;28;46906;-66
2021/10/23 09:40:25;;;;;;;;;5.00;2.50;;;;;23.28;38.87;102576.47;5057752;28;45505;-67
2021/10/23 09:43:11;;;;;;;;;6.00;4.00;;;;;23.40;39.04;102598.34;5058934;28;45370;-67
2021/10/23 09:45:55;;;;;;;;;3.25;3.25;;;;;23.42;39.13;102600.03;5056673;28;45500;-66
2021/10/23 09:48:32;;;;;;;;;4.75;4.50;;;;;23.45;38.99;102602.38;5051774;28;45426;-67
2021/10/23 09:51:16;;;;;;;;;3.50;3.00;;;;;23.32;36.83;102600.06;5053375;28;45341;-68
2021/10/23 09:53:43;;;;;;;;;6.00;4.00;;;;;23.12;36.96;102602.78;5055010;28;45506;-67
2021/10/23 09:56:11;;;;;;;;;2.00;2.00;;;;;23.08;37.85;102599.59;5054260;28;45584;-67
2021/10/23 09:58:37;;;;;;;;;6.50;5.00;;;;;23.10;38.54;102602.09;5059646;28;47183;-67
2021/10/23 10:01:02;;;;;;;;;4.50;3.50;;;;;23.12;38.24;102602.78;5059288;28;46424;-67
2021/10/23 10:03:29;;;;;;;;;3.75;3.00;;;;;23.10;38.37;102595.00;5058238;28;45458;-67
2021/10/23 10:05:59;;;;;;;;;6.00;5.00;;;;;23.18;38.40;102600.41;5051722;28;45498;-67
2021/10/23 10:08:29;;;;;;;;;4.50;4.50;;;;;23.18;38.12;102599.56;5050933;28;45560;-67
2021/10/23 10:10:55;;;;;;;;;5.00;3.00;;;;;23.25;38.38;102589.19;5061017;28;45624;-67
2021/10/23 10:13:24;;;;;;;;;4.25;4.00;;;;;23.28;38.55;102592.41;5059743;28;45196;-67
2021/10/23 10:15:52;;;;;;;;;2.75;2.75;;;;;23.33;37.88;102588.47;5049889;28;45339;-66
2021/10/23 10:18:19;;;;;;;;;5.00;5.00;;;;;23.36;38.54;102591.66;5051967;28;45445;-66
2021/10/23 10:20:47;;;;;;;;;2.25;2.25;;;;;23.38;38.33;102595.00;5051020;28;45528;-66
2021/10/23 10:23:17;;;;;;;;;3.00;3.00;;;;;23.42;38.18;102592.88;5052124;28;45758;-66
2021/10/23 10:25:43;;;;;;;;;4.50;4.50;;;;;23.34;38.50;102575.03;5051089;28;47703;-67
2021/10/23 10:28:11;;;;;;;;;1.00;1.00;;;;;23.14;38.43;102539.75;5053276;28;46990;-67
2021/10/23 10:30:38;;;;;;;;;3.75;3.50;;;;;23.38;38.48;102580.88;5054528;28;45728;-66
2021/10/23 10:33:32;;;;;;;;;3.75;3.75;;;;;23.54;38.46;102606.00;5051013;28;45386;-67
2021/10/23 10:44:18;;;;;;;;;3.75;2.75;;;;;23.64;38.51;102606.81;5051134;28;45490;-67
2021/10/23 10:47:04;;;;;;;;;5.00;5.00;;;;;23.67;38.90;102603.00;5052292;28;45592;-67
2021/10/23 10:49:50;;;;;;;;;5.50;2.25;;;;;23.68;38.34;102594.06;5047915;28;46062;-67
2021/10/23 10:52:40;;;;;;;;;4.50;4.50;;;;;23.70;37.81;102592.09;5052681;28;45505;-66
2021/10/23 10:55:14;;;;;;;;;6.00;6.00;;;;;23.57;36.67;102587.13;5050930;28;45423;-66
2021/10/23 10:58:18;;;;;;;;;5.00;5.00;;;;;23.38;37.08;102592.34;5053850;28;45949;-66
2021/10/23 11:00:46;;;;;;;;;6.75;5.50;;;;;23.25;36.94;102591.84;5031758;28;46068;-66
2021/10/23 11:03:43;;;;;;;;;6.25;5.50;;;;;23.13;37.07;102594.69;5030544;28;45423;-66
2021/10/23 11:06:30;;;;;;;;;3.75;3.00;;;;;23.01;37.29;102583.41;4973240;28;45557;-67
2021/10/23 11:09:16;;;;;;;;;5.00;5.00;;;;;22.88;37.65;102590.84;4972865;28;45565;-67
2021/10/23 11:11:44;;;;;;;;;10.00;8.50;;;;;22.81;37.39;102588.78;4974922;28;46371;-67
2021/10/23 11:14:10;;;;;;;;;9.50;7.25;;;;;22.74;37.11;102590.34;4972494;28;46840;-67
2021/10/23 11:16:37;;;;;;;;;7.00;6.00;;;;;22.66;36.99;102582.22;4976467;28;45543;-67
2021/10/23 11:19:04;;;;;;;;;7.25;7.25;;;;;22.57;36.84;102582.06;4972802;28;45401;-67
2021/10/23 11:21:31;;;;;;;;;4.25;4.25;;;;;22.51;36.82;102582.63;4973742;28;47187;-67
2021/10/23 11:23:57;;;;;;;;;7.75;6.00;;;;;22.55;37.57;102576.06;4975530;28;45374;-67
2021/10/23 11:26:23;;;;;;;;;6.00;5.50;;;;;22.62;37.57;102581.63;4973377;28;45545;-68
2021/10/23 11:28:48;;;;;;;;;4.75;4.75;;;;;22.69;37.63;102579.28;4973176;28;45511;-67
2021/10/23 11:31:19;;;;;;;;;7.25;6.00;;;;;22.77;37.46;102583.91;4985893;28;45681;-67
2021/10/23 11:33:45;;;;;;;;;4.25;4.25;;;;;22.83;37.91;102584.16;5012413;28;45497;-69